Clara — V2CC9 — position and weather

sailwx.info

Track history (hours):
 
Tides and Currents Weather Stations Pressure Air Temp Water Temp Dewpoint Dewpoint Depression Visibility Wind Speed Wind Dir Waves Ship Positions

Clara

Last reported at 2015-Jul-27 23:20 UTC. Time now 2015-Jul-28 17:44 UTC.
Position N 37°11' E 002°29'.

Length 108 m; draft 6.4 m.

Type: Cargo ship. MMSI: 304983000.

Date/timePositionNaut miles runAvg speedWind from/ knotsBaromVisibWave heightAir tempDewpointWater temp
2015-Jul-27 23:20N 37°11' E 002°29'810.0
2015-Jul-27 22:33N 37°08' E 002°20'10 9.8
2015-Jul-27 21:33N 37°06' E 002°08'10 9.9
2015-Jul-27 20:33N 37°04' E 001°56'10 9.8
2015-Jul-27 19:33N 37°02' E 001°44'10 9.7
2015-Jul-27 18:33N 37°00' E 001°32'10 9.9
2015-Jul-27 17:33N 36°59' E 001°20'1010.4
2015-Jul-27 16:33N 36°57' E 001°07'1111.0
2015-Jul-27 15:33N 36°54' E 000°54'1110.9
2015-Jul-27 14:33N 36°51' E 000°41'1110.7
2015-Jul-27 13:33N 36°48' E 000°28'1110.6
2015-Jul-27 12:33N 36°46' E 000°14'1010.5
2015-Jul-27 11:33N 36°44' E 000°02'1110.5
2015-Jul-27 10:28N 36°41' W 000°12'1010.5
2015-Jul-27 09:29N 36°39' W 000°25'1010.3
2015-Jul-27 08:34N 36°37' W 000°36'1210.1
2015-Jul-27 07:21N 36°34' W 000°51'8 9.9
2015-Jul-27 06:33N 36°32' W 001°01'30310.4
2015-Jul-26 01:33N 36°08' W 007°15'1411.0
2015-Jul-26 00:19N 36°12' W 007°31'810.9
2015-Jul-25 23:33N 36°14' W 007°41'1111.1
2015-Jul-25 22:33N 36°17' W 007°55'2311.1
2015-Jul-25 20:30N 36°22' W 008°22'1111.1
2015-Jul-25 19:33N 36°25' W 008°35'1211.5
2015-Jul-25 18:33N 36°28' W 008°49'1111.0
2015-Jul-25 17:33N 36°31' W 009°02'1110.7
2015-Jul-25 16:33N 36°35' W 009°14'1110.7
2015-Jul-25 15:33N 36°41' W 009°25'1210.9
2015-Jul-25 14:26N 36°51' W 009°33'1011.3
2015-Jul-25 13:33N 37°01' W 009°36'1111.0
2015-Jul-25 12:33N 37°12' W 009°39'1111.4
2015-Jul-25 11:33N 37°23' W 009°42'1111.4
2015-Jul-25 10:33N 37°34' W 009°45'1111.3
2015-Jul-25 09:33N 37°45' W 009°49'1111.5
2015-Jul-25 08:33N 37°56' W 009°51'1111.4
2015-Jul-25 07:33N 38°07' W 009°55'1111.1
2015-Jul-25 06:33N 38°18' W 009°58'1111.3
2015-Jul-25 05:33N 38°29' W 010°02'1111.3
2015-Jul-25 04:33N 38°40' W 010°05'1111.3
2015-Jul-25 03:33N 38°51' W 010°06'1111.3
2015-Jul-25 02:33N 39°03' W 010°06'1111.3
2015-Jul-25 01:33N 39°14' W 010°06'  
2015-Jul-21 23:14N 50°09' W 001°58'9011.2
2015-Jul-21 15:09N 50°35' E 000°18'710.6
2015-Jul-21 14:32N 50°37' E 000°28'1010.0
2015-Jul-21 13:34N 50°41' E 000°42'1410.0
2015-Jul-21 12:11N 50°50' E 000°59'1211.2
2015-Jul-21 11:07N 50°58' E 001°14'712.7
2015-Jul-21 10:32N 51°02' E 001°23'1313.3
2015-Jul-21 09:33N 51°10' E 001°39'1212.2
2015-Jul-21 08:34N 51°19' E 001°52'9 9.4
2015-Jul-21 07:33N 51°24' E 002°05'1110.7
2015-Jul-21 06:33N 51°21' E 002°21'1110.0
2015-Jul-21 05:26N 51°23' E 002°38'7 7.7
2015-Jul-21 04:33N 51°22' E 002°49'9 8.9
2015-Jul-21 03:33N 51°24' E 003°03'9 8.1
2015-Jul-21 02:30N 51°25' E 003°17'7 7.6
2015-Jul-21 01:34N 51°25' E 003°28'8 8.3
2015-Jul-21 00:33N 51°24' E 003°42'6 6.4
2015-Jul-20 23:33N 51°20' E 003°49'1 0.9
2015-Jul-20 22:33N 51°19' E 003°50'2 2.2
2015-Jul-20 21:33N 51°17' E 003°50'6 6.2
2015-Jul-20 20:33N 51°11' E 003°48'0 0.1
2015-Jul-20 19:31N 51°11' E 003°48'0 0.0
2015-Jul-20 18:31N 51°11' E 003°48'0 0.0
2015-Jul-20 17:34N 51°11' E 003°48'0 0.0
2015-Jul-20 16:28N 51°11' E 003°48'0 0.0
2015-Jul-20 15:34N 51°11' E 003°48'0 0.0
2015-Jul-20 14:34N 51°11' E 003°48'0 0.0
2015-Jul-20 13:28N 51°11' E 003°48'0 0.0
2015-Jul-20 12:31N 51°11' E 003°48'0 0.0
2015-Jul-20 11:34N 51°11' E 003°48'0 0.0
2015-Jul-20 10:34N 51°11' E 003°48'0 0.0
2015-Jul-20 09:31N 51°11' E 003°48'0 0.0
2015-Jul-20 08:34N 51°11' E 003°48'0 0.0
2015-Jul-20 07:34N 51°11' E 003°48'0 0.0
2015-Jul-20 06:34N 51°11' E 003°48'0 0.0
2015-Jul-20 05:34N 51°11' E 003°48'0 0.0
2015-Jul-20 04:34N 51°11' E 003°48'0 0.0
2015-Jul-20 03:34N 51°11' E 003°48'0 0.0
2015-Jul-20 02:16N 51°11' E 003°48'0 0.0
2015-Jul-20 01:34N 51°11' E 003°48'0 0.0
2015-Jul-20 00:31N 51°11' E 003°48'0 0.0
2015-Jul-19 23:28N 51°11' E 003°48'0 0.0
2015-Jul-19 22:34N 51°11' E 003°48'0 0.0
2015-Jul-19 21:31N 51°11' E 003°48'0 0.0
2015-Jul-19 20:28N 51°11' E 003°48'0 0.0
2015-Jul-19 19:25N 51°11' E 003°48'0 0.0
2015-Jul-19 18:34N 51°11' E 003°48'0 0.0
2015-Jul-19 17:31N 51°11' E 003°48'0 0.0
2015-Jul-19 16:34N 51°11' E 003°48'0 0.0
2015-Jul-19 15:31N 51°11' E 003°48'0 0.0
2015-Jul-19 14:34N 51°11' E 003°48'0 0.0
2015-Jul-19 13:34N 51°11' E 003°48'0 0.0
2015-Jul-19 12:31N 51°11' E 003°48'0 0.0
2015-Jul-19 11:34N 51°11' E 003°48'0 0.0
2015-Jul-19 10:31N 51°11' E 003°48'0 0.0
2015-Jul-19 09:34N 51°11' E 003°48'0 0.0
2015-Jul-19 08:34N 51°11' E 003°48'0 0.0
2015-Jul-19 07:34N 51°11' E 003°48'0 0.0
2015-Jul-19 06:31N 51°11' E 003°48'0 0.0
2015-Jul-19 05:34N 51°11' E 003°48'0 0.0
2015-Jul-19 04:28N 51°11' E 003°48'0 0.0
2015-Jul-19 00:34N 51°11' E 003°48'0 0.0
2015-Jul-18 23:31N 51°11' E 003°48'0 0.0
2015-Jul-18 22:31N 51°11' E 003°48'0 0.0
2015-Jul-18 21:34N 51°11' E 003°48'0 0.0
2015-Jul-18 20:31N 51°11' E 003°48'0 0.0
2015-Jul-18 19:34N 51°11' E 003°48'0 0.1
2015-Jul-18 18:33N 51°10' E 003°48'1 1.3
2015-Jul-18 17:33N 51°09' E 003°47'0 0.0
2015-Jul-18 16:33N 51°09' E 003°47'0 0.0
2015-Jul-18 15:33N 51°09' E 003°47'0 0.0
2015-Jul-18 14:28N 51°09' E 003°47'0 0.0
2015-Jul-18 13:33N 51°09' E 003°47'0 0.0
2015-Jul-18 12:33N 51°09' E 003°47'0 0.0
2015-Jul-18 11:33N 51°09' E 003°47'0 0.0
2015-Jul-18 10:27N 51°09' E 003°47'0 0.0
2015-Jul-18 09:33N 51°09' E 003°47'0 0.0
2015-Jul-18 08:33N 51°09' E 003°47'0 0.0
2015-Jul-18 07:30N 51°09' E 003°47'0 0.0
2015-Jul-18 06:33N 51°09' E 003°47'0 0.0
2015-Jul-18 05:30N 51°09' E 003°47'0 0.0
2015-Jul-18 04:30N 51°09' E 003°47'0 0.0
2015-Jul-18 03:27N 51°09' E 003°47'0 0.0
2015-Jul-18 02:30N 51°09' E 003°47'0 0.0
2015-Jul-18 01:30N 51°09' E 003°47'0 0.0
2015-Jul-18 00:33N 51°09' E 003°47'0 0.0
2015-Jul-17 23:30N 51°09' E 003°47'  
Track history (hours):
 
Tides and Currents Weather Stations Pressure Air Temp Water Temp Dewpoint Dewpoint Depression Visibility Wind Speed Wind Dir Waves Ship Positions

Clara

Last reported at 2015-Jul-27 23:20 UTC. Time now 2015-Jul-28 17:44 UTC.
Position N 37°11' E 002°29'.

Length 108 m; draft 6.4 m.

Type: Cargo ship. MMSI: 304983000.

Date/timePositionNaut miles runAvg speedWind from/ knotsBaromVisibWave heightAir tempDewpointWater temp
2015-Jul-27 23:20N 37°11' E 002°29'810.0
2015-Jul-27 22:33N 37°08' E 002°20'10 9.8
2015-Jul-27 21:33N 37°06' E 002°08'10 9.9
2015-Jul-27 20:33N 37°04' E 001°56'10 9.8
2015-Jul-27 19:33N 37°02' E 001°44'10 9.7
2015-Jul-27 18:33N 37°00' E 001°32'10 9.9
2015-Jul-27 17:33N 36°59' E 001°20'1010.4
2015-Jul-27 16:33N 36°57' E 001°07'1111.0
2015-Jul-27 15:33N 36°54' E 000°54'1110.9
2015-Jul-27 14:33N 36°51' E 000°41'1110.7
2015-Jul-27 13:33N 36°48' E 000°28'1110.6
2015-Jul-27 12:33N 36°46' E 000°14'1010.5
2015-Jul-27 11:33N 36°44' E 000°02'1110.5
2015-Jul-27 10:28N 36°41' W 000°12'1010.5
2015-Jul-27 09:29N 36°39' W 000°25'1010.3
2015-Jul-27 08:34N 36°37' W 000°36'1210.1
2015-Jul-27 07:21N 36°34' W 000°51'8 9.9
2015-Jul-27 06:33N 36°32' W 001°01'30310.4
2015-Jul-26 01:33N 36°08' W 007°15'1411.0
2015-Jul-26 00:19N 36°12' W 007°31'810.9
2015-Jul-25 23:33N 36°14' W 007°41'1111.1
2015-Jul-25 22:33N 36°17' W 007°55'2311.1
2015-Jul-25 20:30N 36°22' W 008°22'1111.1
2015-Jul-25 19:33N 36°25' W 008°35'1211.5
2015-Jul-25 18:33N 36°28' W 008°49'1111.0
2015-Jul-25 17:33N 36°31' W 009°02'1110.7
2015-Jul-25 16:33N 36°35' W 009°14'1110.7
2015-Jul-25 15:33N 36°41' W 009°25'1210.9
2015-Jul-25 14:26N 36°51' W 009°33'1011.3
2015-Jul-25 13:33N 37°01' W 009°36'1111.0
2015-Jul-25 12:33N 37°12' W 009°39'1111.4
2015-Jul-25 11:33N 37°23' W 009°42'1111.4
2015-Jul-25 10:33N 37°34' W 009°45'1111.3
2015-Jul-25 09:33N 37°45' W 009°49'1111.5
2015-Jul-25 08:33N 37°56' W 009°51'1111.4
2015-Jul-25 07:33N 38°07' W 009°55'1111.1
2015-Jul-25 06:33N 38°18' W 009°58'1111.3
2015-Jul-25 05:33N 38°29' W 010°02'1111.3
2015-Jul-25 04:33N 38°40' W 010°05'1111.3
2015-Jul-25 03:33N 38°51' W 010°06'1111.3
2015-Jul-25 02:33N 39°03' W 010°06'1111.3
2015-Jul-25 01:33N 39°14' W 010°06'  
2015-Jul-21 23:14N 50°09' W 001°58'9011.2
2015-Jul-21 15:09N 50°35' E 000°18'710.6
2015-Jul-21 14:32N 50°37' E 000°28'1010.0
2015-Jul-21 13:34N 50°41' E 000°42'1410.0
2015-Jul-21 12:11N 50°50' E 000°59'1211.2
2015-Jul-21 11:07N 50°58' E 001°14'712.7
2015-Jul-21 10:32N 51°02' E 001°23'1313.3
2015-Jul-21 09:33N 51°10' E 001°39'1212.2
2015-Jul-21 08:34N 51°19' E 001°52'9 9.4
2015-Jul-21 07:33N 51°24' E 002°05'1110.7
2015-Jul-21 06:33N 51°21' E 002°21'1110.0
2015-Jul-21 05:26N 51°23' E 002°38'7 7.7
2015-Jul-21 04:33N 51°22' E 002°49'9 8.9
2015-Jul-21 03:33N 51°24' E 003°03'9 8.1
2015-Jul-21 02:30N 51°25' E 003°17'7 7.6
2015-Jul-21 01:34N 51°25' E 003°28'8 8.3
2015-Jul-21 00:33N 51°24' E 003°42'6 6.4
2015-Jul-20 23:33N 51°20' E 003°49'1 0.9
2015-Jul-20 22:33N 51°19' E 003°50'2 2.2
2015-Jul-20 21:33N 51°17' E 003°50'6 6.2
2015-Jul-20 20:33N 51°11' E 003°48'0 0.1
2015-Jul-20 19:31N 51°11' E 003°48'0 0.0
2015-Jul-20 18:31N 51°11' E 003°48'0 0.0
2015-Jul-20 17:34N 51°11' E 003°48'0 0.0
2015-Jul-20 16:28N 51°11' E 003°48'0 0.0
2015-Jul-20 15:34N 51°11' E 003°48'0 0.0
2015-Jul-20 14:34N 51°11' E 003°48'0 0.0
2015-Jul-20 13:28N 51°11' E 003°48'0 0.0
2015-Jul-20 12:31N 51°11' E 003°48'0 0.0
2015-Jul-20 11:34N 51°11' E 003°48'0 0.0
2015-Jul-20 10:34N 51°11' E 003°48'0 0.0
2015-Jul-20 09:31N 51°11' E 003°48'0 0.0
2015-Jul-20 08:34N 51°11' E 003°48'0 0.0
2015-Jul-20 07:34N 51°11' E 003°48'0 0.0
2015-Jul-20 06:34N 51°11' E 003°48'0 0.0
2015-Jul-20 05:34N 51°11' E 003°48'0 0.0
2015-Jul-20 04:34N 51°11' E 003°48'0 0.0
2015-Jul-20 03:34N 51°11' E 003°48'0 0.0
2015-Jul-20 02:16N 51°11' E 003°48'0 0.0
2015-Jul-20 01:34N 51°11' E 003°48'0 0.0
2015-Jul-20 00:31N 51°11' E 003°48'0 0.0
2015-Jul-19 23:28N 51°11' E 003°48'0 0.0
2015-Jul-19 22:34N 51°11' E 003°48'0 0.0
2015-Jul-19 21:31N 51°11' E 003°48'0 0.0
2015-Jul-19 20:28N 51°11' E 003°48'0 0.0
2015-Jul-19 19:25N 51°11' E 003°48'0 0.0
2015-Jul-19 18:34N 51°11' E 003°48'0 0.0
2015-Jul-19 17:31N 51°11' E 003°48'0 0.0
2015-Jul-19 16:34N 51°11' E 003°48'0 0.0
2015-Jul-19 15:31N 51°11' E 003°48'0 0.0
2015-Jul-19 14:34N 51°11' E 003°48'0 0.0
2015-Jul-19 13:34N 51°11' E 003°48'0 0.0
2015-Jul-19 12:31N 51°11' E 003°48'0 0.0
2015-Jul-19 11:34N 51°11' E 003°48'0 0.0
2015-Jul-19 10:31N 51°11' E 003°48'0 0.0
2015-Jul-19 09:34N 51°11' E 003°48'0 0.0
2015-Jul-19 08:34N 51°11' E 003°48'0 0.0
2015-Jul-19 07:34N 51°11' E 003°48'0 0.0
2015-Jul-19 06:31N 51°11' E 003°48'0 0.0
2015-Jul-19 05:34N 51°11' E 003°48'0 0.0
2015-Jul-19 04:28N 51°11' E 003°48'0 0.0
2015-Jul-19 00:34N 51°11' E 003°48'0 0.0
2015-Jul-18 23:31N 51°11' E 003°48'0 0.0
2015-Jul-18 22:31N 51°11' E 003°48'0 0.0
2015-Jul-18 21:34N 51°11' E 003°48'0 0.0
2015-Jul-18 20:31N 51°11' E 003°48'0 0.0
2015-Jul-18 19:34N 51°11' E 003°48'0 0.1
2015-Jul-18 18:33N 51°10' E 003°48'1 1.3
2015-Jul-18 17:33N 51°09' E 003°47'0 0.0
2015-Jul-18 16:33N 51°09' E 003°47'0 0.0
2015-Jul-18 15:33N 51°09' E 003°47'0 0.0
2015-Jul-18 14:28N 51°09' E 003°47'0 0.0
2015-Jul-18 13:33N 51°09' E 003°47'0 0.0
2015-Jul-18 12:33N 51°09' E 003°47'0 0.0
2015-Jul-18 11:33N 51°09' E 003°47'0 0.0
2015-Jul-18 10:27N 51°09' E 003°47'0 0.0
2015-Jul-18 09:33N 51°09' E 003°47'0 0.0
2015-Jul-18 08:33N 51°09' E 003°47'0 0.0
2015-Jul-18 07:30N 51°09' E 003°47'0 0.0
2015-Jul-18 06:33N 51°09' E 003°47'0 0.0
2015-Jul-18 05:30N 51°09' E 003°47'0 0.0
2015-Jul-18 04:30N 51°09' E 003°47'0 0.0
2015-Jul-18 03:27N 51°09' E 003°47'0 0.0
2015-Jul-18 02:30N 51°09' E 003°47'0 0.0
2015-Jul-18 01:30N 51°09' E 003°47'0 0.0
2015-Jul-18 00:33N 51°09' E 003°47'0 0.0
2015-Jul-17 23:30N 51°09' E 003°47'  

Dump ship's entire track history